Time;durP1;ratioP1;P1;durP2;ratioP2;P2;SDS_P1;SDS_P2;PMS_P1;PMS_P2;Temp;Humidity;BMP_temperature;BMP_pressure;BME280_temperature;BME280_humidity;BME280_pressure;Samples;Min_cycle;Max_cycle;Signal;HPM_P1;HPM_P2
2021/08/28 00:02:13;;;;;;;12.25;10.20;;;;;;;16.73;74.35;100026.75;1686688;84;21571;-69
2021/08/28 00:04:39;;;;;;;10.23;9.15;;;;;;;16.74;74.46;100032.41;1681975;83;21055;-69
2021/08/28 00:07:05;;;;;;;11.43;9.78;;;;;;;16.72;74.44;100025.09;1678319;84;21083;-68
2021/08/28 00:09:31;;;;;;;11.22;8.53;;;;;;;16.70;74.50;100023.98;1677723;83;21055;-69
2021/08/28 00:11:59;;;;;;;14.15;9.88;;;;;;;16.68;74.67;100026.63;1674715;84;21121;-69
2021/08/28 00:14:25;;;;;;;13.48;9.45;;;;;;;16.67;74.86;100023.13;1661738;84;21070;-70
2021/08/28 00:16:51;;;;;;;10.70;9.08;;;;;;;16.65;74.90;100021.20;1669623;84;21695;-69
2021/08/28 00:19:18;;;;;;;10.93;9.83;;;;;;;16.64;75.03;100024.13;1679238;84;21558;-70
2021/08/28 00:21:43;;;;;;;;;;;;;;;16.65;75.12;100027.09;1678452;84;21765;-69
2021/08/28 00:24:09;;;;;;;9.30;7.85;;;;;;;16.63;75.07;100030.05;1675468;84;20153;-69
2021/08/28 00:26:35;;;;;;;10.43;9.03;;;;;;;16.52;75.31;100026.30;1678861;84;21078;-68
2021/08/28 00:29:02;;;;;;;12.37;8.58;;;;;;;16.57;75.69;100032.84;1681347;85;21468;-68
2021/08/28 00:31:27;;;;;;;;;;;;;;;16.53;75.88;100027.92;1679212;84;21122;-68
2021/08/28 00:33:54;;;;;;;11.08;9.93;;;;;;;16.54;76.01;100028.77;1671635;83;20103;-69
2021/08/28 00:36:20;;;;;;;10.38;8.70;;;;;;;16.51;76.20;100024.66;1669706;84;21056;-69
2021/08/28 00:38:48;;;;;;;11.05;8.83;;;;;;;16.54;76.08;100025.54;1669307;85;21013;-70
2021/08/28 00:41:15;;;;;;;9.65;8.65;;;;;;;16.58;76.27;100027.23;1667467;84;21021;-69
2021/08/28 00:43:43;;;;;;;9.30;8.40;;;;;;;16.64;76.26;100021.44;1656991;85;21105;-71
2021/08/28 00:46:09;;;;;;;8.93;7.87;;;;;;;16.69;76.16;100022.91;1667020;85;21622;-69
2021/08/28 00:48:35;;;;;;;;;;;;;;;16.73;76.07;100022.72;1691603;84;21020;-69
2021/08/28 00:51:02;;;;;;;9.88;9.05;;;;;;;16.73;76.03;100024.06;1684602;84;20231;-69
2021/08/28 00:53:28;;;;;;;8.80;8.10;;;;;;;16.69;76.19;100022.91;1668603;84;21593;-69
2021/08/28 00:55:54;;;;;;;;;;;;;;;16.73;76.26;100021.37;1691390;81;21037;-69
2021/08/28 00:58:22;;;;;;;10.43;8.45;;;;;;;16.79;76.08;100026.33;1685227;83;20147;-69
2021/08/28 01:00:55;;;;;;;15.18;9.43;;;;;;;16.80;76.23;100021.22;1683903;81;21135;-69
2021/08/28 01:03:32;;;;;;;9.10;8.25;;;;;;;16.82;75.82;100007.00;1690198;84;20969;-69
2021/08/28 01:09:04;;;;;;;8.75;8.05;;;;;;;16.79;75.69;100000.77;1792131;78;22690;-69
2021/08/28 01:11:55;;;;;;;9.75;8.95;;;;;;;16.68;75.87;100013.18;1732085;80;21031;-70
2021/08/28 01:14:27;;;;;;;9.65;8.03;;;;;;;16.66;75.93;100017.98;1697924;83;21680;-69
2021/08/28 01:17:07;;;;;;;12.15;8.15;;;;;;;16.65;75.83;100011.79;1699375;83;20985;-68
2021/08/28 01:19:45;;;;;;;8.90;8.03;;;;;;;16.63;75.81;100015.75;1682846;83;21043;-70
2021/08/28 01:22:18;;;;;;;10.05;8.10;;;;;;;16.61;75.87;100009.25;1696559;82;21000;-69
2021/08/28 01:25:03;;;;;;;9.30;8.48;;;;;;;16.63;75.94;100006.33;1726589;82;20966;-69
2021/08/28 01:27:49;;;;;;;8.58;7.95;;;;;;;16.62;76.02;99997.45;1714708;82;21055;-70
2021/08/28 01:30:16;;;;;;;8.48;7.78;;;;;;;16.64;75.92;99995.88;1713882;82;21018;-69
2021/08/28 01:32:44;;;;;;;12.13;8.00;;;;;;;16.66;75.83;100000.48;1723304;82;21023;-70
2021/08/28 01:35:14;;;;;;;8.40;7.67;;;;;;;16.65;75.75;100001.53;1702121;82;21091;-69
2021/08/28 01:37:42;;;;;;;7.00;6.37;;;;;;;16.62;75.84;100000.14;1701711;83;21500;-69
2021/08/28 01:40:32;;;;;;;10.30;7.55;;;;;;;16.59;76.00;100001.95;1705873;83;21013;-72
2021/08/28 01:43:00;;;;;;;7.75;7.25;;;;;;;16.55;76.23;100015.05;1689866;83;21028;-69
2021/08/28 01:45:27;;;;;;;11.10;7.62;;;;;;;16.54;76.27;100010.73;1694007;81;21053;-69
2021/08/28 01:47:56;;;;;;;7.70;7.10;;;;;;;16.52;76.33;100012.85;1685749;83;21077;-70
2021/08/28 01:50:24;;;;;;;8.48;7.62;;;;;;;16.51;76.42;100028.69;1656403;85;21058;-69
2021/08/28 01:52:52;;;;;;;7.05;6.55;;;;;;;16.50;76.54;100031.10;1682994;83;21054;-68
2021/08/28 01:55:20;;;;;;;8.03;7.42;;;;;;;16.49;76.63;100034.83;1686096;83;21112;-70
2021/08/28 01:58:01;;;;;;;6.90;6.40;;;;;;;16.45;76.81;100032.33;1679558;83;21192;-69
2021/08/28 02:00:31;;;;;;;8.75;7.35;;;;;;;16.40;77.25;100031.39;1646621;86;21083;-67
2021/08/28 02:02:58;;;;;;;7.28;6.72;;;;;;;16.38;77.66;100027.58;1612657;86;21016;-68
2021/08/28 02:05:24;;;;;;;10.20;6.95;;;;;;;16.38;77.74;100022.20;1656881;85;21036;-69
2021/08/28 02:07:59;;;;;;;8.13;7.47;;;;;;;16.40;77.73;100012.56;1650194;86;21609;-70
2021/08/28 02:10:39;;;;;;;8.03;7.42;;;;;;;16.43;77.66;99998.12;1638088;86;21045;-70
2021/08/28 02:13:16;;;;;;;8.40;7.80;;;;;;;16.48;77.45;99990.17;1627439;86;21015;-70
2021/08/28 02:15:50;;;;;;;7.30;6.70;;;;;;;16.53;77.22;99985.41;1594173;88;21098;-69
2021/08/28 02:18:32;;;;;;;8.13;7.42;;;;;;;16.54;77.06;99981.14;1632556;86;21548;-70
2021/08/28 02:21:04;;;;;;;9.60;8.55;;;;;;;16.53;76.92;99982.19;1617414;86;21029;-82
2021/08/28 02:23:48;;;;;;;9.10;8.35;;;;;;;16.47;76.96;99969.69;1635914;84;21142;-70
2021/08/28 02:26:27;;;;;;;9.40;8.50;;;;;;;16.47;77.24;99974.26;1599599;88;21079;-70
2021/08/28 02:29:02;;;;;;;9.23;8.35;;;;;;;16.48;76.98;99975.88;1633022;86;21055;-70
2021/08/28 02:31:40;;;;;;;8.73;7.97;;;;;;;16.50;76.88;99989.91;1632631;86;21119;-69
2021/08/28 02:34:08;;;;;;;8.50;7.80;;;;;;;16.47;76.83;99973.72;1626610;85;21148;-69
2021/08/28 02:36:41;;;;;;;8.98;8.18;;;;;;;16.46;76.97;99969.91;1616525;87;21096;-70
2021/08/28 02:39:11;;;;;;;12.68;8.58;;;;;;;16.45;77.07;99967.77;1610431;87;21092;-71
2021/08/28 02:41:42;;;;;;;9.53;8.53;;;;;;;16.47;76.97;99973.72;1597621;88;21124;-70
2021/08/28 02:44:10;;;;;;;8.50;7.58;;;;;;;16.48;76.87;99963.77;1625044;87;21090;-69
2021/08/28 02:46:41;;;;;;;10.38;7.70;;;;;;;16.45;77.20;99965.08;1643654;86;21547;-69
2021/08/28 02:49:11;;;;;;;8.50;7.17;;;;;;;16.40;77.18;99967.64;1637532;86;21051;-68
2021/08/28 02:51:40;;;;;;;8.08;7.58;;;;;;;16.35;77.37;99975.09;1640739;86;21549;-69
2021/08/28 02:54:11;;;;;;;8.95;7.92;;;;;;;16.30;77.72;99977.66;1631427;86;20997;-69
2021/08/28 02:56:39;;;;;;;10.53;7.80;;;;;;;16.27;78.03;99981.34;1620092;85;21510;-68
2021/08/28 02:59:06;;;;;;;8.38;7.58;;;;;;;16.25;78.17;99967.31;1591679;89;21036;-70
2021/08/28 03:01:33;;;;;;;9.93;8.28;;;;;;;16.27;78.25;99959.83;1614713;87;21540;-68
2021/08/28 03:03:59;;;;;;;7.78;7.00;;;;;;;16.27;78.27;99960.63;1610711;88;21012;-69
2021/08/28 03:06:32;;;;;;;9.18;8.20;;;;;;;16.26;78.28;99954.17;1602208;88;21100;-69
2021/08/28 03:08:59;;;;;;;8.03;7.40;;;;;;;16.26;78.21;99954.98;1610912;88;21536;-70
2021/08/28 03:11:25;;;;;;;;;;;;;;;16.27;78.38;99966.55;1601096;88;21026;-69
2021/08/28 03:13:52;;;;;;;8.80;8.10;;;;;;;16.21;78.57;99980.41;1590438;88;20172;-69
2021/08/28 03:16:25;;;;;;;8.40;7.70;;;;;;;16.11;78.96;99980.99;1612049;88;21156;-69
2021/08/28 03:18:57;;;;;;;8.85;8.18;;;;;;;16.11;78.96;99980.99;1596722;88;21006;-69
2021/08/28 03:21:28;;;;;;;9.08;8.33;;;;;;;16.09;79.06;99985.79;1597682;88;21057;-69
2021/08/28 03:23:57;;;;;;;9.30;7.17;;;;;;;16.11;78.80;99970.77;1613030;87;21039;-68
2021/08/28 03:26:24;;;;;;;8.73;7.80;;;;;;;16.11;78.80;99970.77;1616072;87;21068;-69
2021/08/28 03:28:54;;;;;;;8.75;8.03;;;;;;;16.20;78.76;99976.59;1621479;87;21013;-69
2021/08/28 03:31:24;;;;;;;9.33;7.90;;;;;;;16.20;78.76;99976.59;1616400;87;21536;-70
2021/08/28 03:33:53;;;;;;;8.40;7.72;;;;;;;16.24;78.56;99975.11;1623859;84;20985;-70
2021/08/28 03:36:21;;;;;;;11.35;7.87;;;;;;;16.25;78.50;99978.87;1616878;87;21025;-70
2021/08/28 03:38:47;;;;;;;8.65;7.90;;;;;;;16.30;78.40;99972.81;1620094;87;20996;-70
2021/08/28 03:41:16;;;;;;;6.78;6.37;;;;;;;16.39;77.81;99967.88;1625856;87;21073;-69
2021/08/28 03:43:45;;;;;;;7.22;6.75;;;;;;;16.48;77.86;99968.64;1603546;88;21104;-68
2021/08/28 03:46:13;;;;;;;7.03;6.42;;;;;;;16.59;77.37;99970.20;1625573;83;21351;-68
2021/08/28 03:48:41;;;;;;;7.65;7.03;;;;;;;16.69;76.90;99973.92;1622041;87;21017;-69
2021/08/28 03:51:08;;;;;;;7.50;6.90;;;;;;;16.78;76.48;99971.66;1620271;87;21509;-68
2021/08/28 03:53:36;;;;;;;7.90;7.28;;;;;;;16.86;75.93;99976.72;1619124;87;21060;-70
2021/08/28 03:56:06;;;;;;;8.68;7.30;;;;;;;16.92;75.74;99982.48;1608380;86;21071;-69
2021/08/28 03:58:34;;;;;;;7.83;7.00;;;;;;;16.96;75.52;99982.83;1588997;88;21564;-70
2021/08/28 04:01:02;;;;;;;7.92;7.25;;;;;;;16.96;75.40;99976.64;1602174;87;21021;-69
2021/08/28 04:03:28;;;;;;;8.35;7.67;;;;;;;16.92;75.42;99979.80;1621956;87;21046;-70
2021/08/28 04:05:54;;;;;;;9.03;7.37;;;;;;;16.91;75.38;99978.18;1623948;87;21152;-70
2021/08/28 04:08:22;;;;;;;6.83;6.22;;;;;;;16.89;75.41;99978.92;1630378;85;21646;-69
2021/08/28 04:10:50;;;;;;;9.03;7.20;;;;;;;16.85;75.56;99980.45;1623055;87;21066;-68
2021/08/28 04:13:19;;;;;;;7.25;6.53;;;;;;;16.82;75.94;99987.69;1632035;86;21056;-68
2021/08/28 04:15:45;;;;;;;7.85;7.33;;;;;;;16.78;76.90;99989.16;1657229;86;21024;-70
2021/08/28 04:18:13;;;;;;;7.15;6.45;;;;;;;16.75;76.88;99989.65;1649352;86;21501;-69
2021/08/28 04:20:41;;;;;;;8.80;8.05;;;;;;;16.73;77.00;99991.77;1614514;87;21072;-69
2021/08/28 04:23:09;;;;;;;16.73;6.50;;;;;;;16.35;76.86;99926.67;1653525;86;21476;-69
2021/08/28 04:25:39;;;;;;;7.10;6.60;;;;;;;16.76;76.80;99989.11;1594063;87;21048;-69
2021/08/28 04:28:07;;;;;;;7.47;6.87;;;;;;;16.79;76.58;99992.69;1628337;86;21133;-69
2021/08/28 04:30:34;;;;;;;8.50;7.00;;;;;;;16.78;76.54;99983.77;1606317;87;20999;-69
2021/08/28 04:33:02;;;;;;;8.18;7.37;;;;;;;16.80;76.58;99983.03;1616199;87;21127;-70
2021/08/28 04:35:29;;;;;;;7.75;6.78;;;;;;;16.83;76.67;99989.30;1617130;87;21182;-70
2021/08/28 04:37:55;;;;;;;7.47;6.87;;;;;;;16.84;76.68;99988.26;1602919;87;21101;-70
2021/08/28 04:40:22;;;;;;;7.58;6.97;;;;;;;16.87;76.80;99990.45;1616037;87;21051;-69
2021/08/28 04:42:52;;;;;;;7.33;6.83;;;;;;;16.90;76.72;99987.83;1587623;89;21063;-70
2021/08/28 04:45:19;;;;;;;7.55;6.92;;;;;;;16.96;76.61;99987.41;1641430;86;21029;-69
2021/08/28 04:48:05;;;;;;;8.30;6.92;;;;;;;17.00;76.76;99979.14;1643230;86;21032;-69
2021/08/28 04:50:35;;;;;;;6.47;5.97;;;;;;;17.07;76.87;99981.97;1646624;86;21648;-69
2021/08/28 04:53:02;;;;;;;6.22;5.62;;;;;;;17.18;76.62;99988.38;1636602;86;21049;-69
2021/08/28 04:55:29;;;;;;;7.33;6.78;;;;;;;17.26;76.30;99987.98;1630518;86;21545;-69
2021/08/28 04:57:56;;;;;;;7.37;6.60;;;;;;;17.31;75.98;99986.74;1638326;86;21739;-69
2021/08/28 05:00:24;;;;;;;7.30;6.70;;;;;;;17.36;75.64;99988.70;1641008;85;21722;-71
2021/08/28 05:03:09;;;;;;;8.03;7.33;;;;;;;17.16;75.48;99948.76;1612070;87;21105;-69
2021/08/28 05:05:35;;;;;;;9.13;8.43;;;;;;;17.44;75.47;99992.87;1614871;87;21122;-70
2021/08/28 05:08:03;;;;;;;8.85;8.15;;;;;;;17.49;75.28;99991.63;1643841;86;21185;-68
2021/08/28 05:10:29;;;;;;;8.25;7.50;;;;;;;17.53;74.96;99996.81;1611519;86;21049;-69
2021/08/28 05:12:57;;;;;;;8.75;7.35;;;;;;;17.55;74.93;100006.01;1625966;85;21080;-69
2021/08/28 05:15:25;;;;;;;10.58;9.10;;;;;;;17.53;75.24;100002.20;1621227;86;21041;-70
2021/08/28 05:17:53;;;;;;;7.90;7.20;;;;;;;17.46;75.34;99997.48;1636543;86;21012;-69
2021/08/28 05:20:22;;;;;;;8.30;7.40;;;;;;;17.45;75.33;99998.56;1632969;86;21088;-70
2021/08/28 05:23:06;;;;;;;6.72;6.12;;;;;;;17.46;75.14;99995.63;1593980;87;21047;-69
2021/08/28 05:25:41;;;;;;;7.92;7.20;;;;;;;17.50;75.09;100014.30;1654668;85;21685;-70
2021/08/28 05:28:09;;;;;;;8.28;7.58;;;;;;;17.50;75.95;100017.52;1650342;85;21499;-69
2021/08/28 05:30:35;;;;;;;8.65;7.90;;;;;;;17.49;76.17;100013.99;1651025;85;21013;-68
2021/08/28 05:33:01;;;;;;;8.25;7.45;;;;;;;17.53;76.45;100008.94;1651715;85;21490;-68
2021/08/28 05:35:28;;;;;;;8.80;7.85;;;;;;;17.54;76.54;100005.20;1652001;85;21046;-69
2021/08/28 05:38:02;;;;;;;9.30;8.35;;;;;;;17.58;76.12;100009.04;1600247;87;21097;-68
2021/08/28 05:40:31;;;;;;;7.90;7.08;;;;;;;17.59;75.81;99998.53;1643048;85;21041;-67
2021/08/28 05:42:57;;;;;;;7.72;7.12;;;;;;;17.62;75.66;100002.64;1652962;85;21103;-68
2021/08/28 05:45:24;;;;;;;8.30;7.10;;;;;;;17.62;75.21;100009.38;1634866;83;21054;-68
2021/08/28 05:47:50;;;;;;;;;;;;;;;17.61;75.24;100005.87;1699612;83;21029;-68
2021/08/28 05:50:18;;;;;;;7.17;6.47;;;;;;;17.62;75.35;100001.29;1690175;83;20130;-69
2021/08/28 05:52:46;;;;;;;6.85;6.03;;;;;;;17.58;75.18;99996.91;1686060;83;21082;-68
2021/08/28 05:55:14;;;;;;;19.02;5.62;;;;;;;17.60;74.81;99997.48;1668762;85;21651;-69
2021/08/28 05:57:42;;;;;;;7.47;5.95;;;;;;;17.63;74.49;99992.97;1663702;84;21004;-68
2021/08/28 06:00:10;;;;;;;5.33;4.83;;;;;;;17.67;74.30;99998.15;1669760;83;21093;-68
2021/08/28 06:02:44;;;;;;;6.25;5.62;;;;;;;17.70;73.94;99999.53;1646339;85;21498;-68
2021/08/28 06:05:13;;;;;;;5.75;4.90;;;;;;;17.71;73.59;99997.94;1651986;86;21106;-69
2021/08/28 06:07:58;;;;;;;4.08;3.77;;;;;;;17.75;73.80;99994.77;1648080;85;21020;-69
2021/08/28 06:10:42;;;;;;;7.28;4.95;;;;;;;17.80;73.33;99994.84;1647419;86;21017;-68
2021/08/28 06:13:11;;;;;;;4.78;3.70;;;;;;;17.85;72.46;99994.96;1623180;86;21111;-71
2021/08/28 06:15:39;;;;;;;4.12;3.80;;;;;;;17.89;71.75;99999.63;1655948;86;21428;-71
2021/08/28 06:18:09;;;;;;;4.15;3.75;;;;;;;17.93;71.48;100005.33;1635410;85;21107;-72
2021/08/28 06:20:35;;;;;;;;;;;;;;;17.98;71.29;100001.38;1659364;85;21038;-71
2021/08/28 06:23:01;;;;;;;3.98;3.75;;;;;;;18.00;70.55;99996.55;1641063;85;20664;-73
2021/08/28 06:25:29;;;;;;;3.17;2.80;;;;;;;17.98;70.58;100005.41;1629946;86;21073;-72
2021/08/28 06:27:55;;;;;;;;;;;;;;;17.93;70.16;100009.37;1631453;87;21042;-73
2021/08/28 06:30:25;;;;;;;4.67;3.52;;;;;;;17.94;69.87;100010.21;1632155;86;20163;-72
2021/08/28 06:32:51;;;;;;;4.40;4.10;;;;;;;17.94;69.92;100012.91;1607056;88;21059;-73
2021/08/28 06:35:20;;;;;;;4.33;3.90;;;;;;;17.96;69.99;100014.28;1634719;86;21060;-72
2021/08/28 06:37:48;;;;;;;6.28;4.20;;;;;;;18.00;69.96;100007.33;1623387;86;21098;-73
2021/08/28 06:40:16;;;;;;;9.13;4.17;;;;;;;18.04;69.98;100015.22;1599482;88;21033;-74
2021/08/28 06:42:46;;;;;;;4.25;3.95;;;;;;;18.09;70.16;100018.54;1634865;86;21052;-72
2021/08/28 06:45:30;;;;;;;4.65;4.05;;;;;;;18.14;69.96;100021.83;1631180;86;21052;-73
2021/08/28 06:48:16;;;;;;;4.47;4.17;;;;;;;18.21;69.57;100021.14;1630673;86;21044;-73
2021/08/28 06:51:01;;;;;;;3.98;3.67;;;;;;;18.28;70.01;100028.00;1642465;86;22160;-74
2021/08/28 06:53:39;;;;;;;7.12;4.53;;;;;;;18.36;69.49;100038.09;1566140;89;21505;-76
2021/08/28 06:56:24;;;;;;;4.35;4.05;;;;;;;18.43;69.16;100031.45;1631364;86;21182;-74
2021/08/28 06:58:54;;;;;;;7.65;4.67;;;;;;;18.49;69.28;100030.45;1632289;86;21039;-71
2021/08/28 07:01:33;;;;;;;;;;;;;;;18.54;69.42;100026.22;1645087;86;21262;-74
2021/08/28 07:04:15;;;;;;;10.65;5.15;;;;;;;18.60;68.63;100036.02;1643898;86;20174;-74
2021/08/28 07:07:07;;;;;;;5.33;4.92;;;;;;;18.61;68.44;100034.94;1635821;86;21383;-74
2021/08/28 07:09:34;;;;;;;5.87;4.83;;;;;;;18.64;68.44;100032.55;1640302;86;21549;-74
2021/08/28 07:12:01;;;;;;;5.00;4.60;;;;;;;18.71;68.39;100040.48;1630513;86;21083;-73
2021/08/28 07:14:27;;;;;;;8.90;5.45;;;;;;;18.83;68.34;100043.91;1640339;86;21028;-75
2021/08/28 07:16:54;;;;;;;6.80;4.95;;;;;;;18.95;67.87;100032.17;1643954;86;21005;-73
2021/08/28 07:19:21;;;;;;;;;;;;;;;19.10;67.25;100040.48;1647794;86;21063;-74
2021/08/28 07:21:48;;;;;;;5.72;4.70;;;;;;;19.30;67.21;100035.02;1643634;86;20141;-74
2021/08/28 07:24:15;;;;;;;;;;;;;;;19.46;66.88;100047.64;1646670;86;21136;-76
2021/08/28 07:26:43;;;;;;;7.80;5.42;;;;;;;19.69;66.86;100053.81;1643748;86;20212;-72
2021/08/28 07:29:23;;;;;;;5.08;4.47;;;;;;;19.89;66.19;100059.45;1595613;87;21627;-72
2021/08/28 07:31:49;;;;;;;;;;;;;;;20.04;64.79;100054.67;1643959;86;21029;-73
2021/08/28 07:34:17;;;;;;;5.50;4.03;;;;;;;20.16;63.91;100059.39;1638478;86;20221;-73
2021/08/28 07:36:44;;;;;;;4.65;4.15;;;;;;;20.16;64.18;100053.98;1643217;86;22157;-73
2021/08/28 07:39:10;;;;;;;5.70;4.67;;;;;;;20.16;63.70;100054.52;1641807;86;21033;-74
2021/08/28 07:41:36;;;;;;;5.97;3.92;;;;;;;20.10;63.58;100060.95;1635175;86;21150;-73
2021/08/28 07:44:05;;;;;;;;;;;;;;;20.06;63.80;100058.48;1641063;85;21048;-74
2021/08/28 07:46:31;;;;;;;4.67;3.47;;;;;;;20.07;63.90;100060.13;1643781;86;20158;-74
2021/08/28 07:49:02;;;;;;;4.50;3.90;;;;;;;20.00;63.30;100063.87;1623904;86;21092;-73
2021/08/28 07:51:29;;;;;;;3.65;3.30;;;;;;;20.01;63.91;100072.80;1639176;86;21055;-72
2021/08/28 07:53:55;;;;;;;4.45;3.75;;;;;;;20.06;64.32;100068.79;1635876;86;21046;-73
2021/08/28 07:56:21;;;;;;;;;;;;;;;20.14;63.92;100074.27;1646703;86;21099;-73
2021/08/28 07:58:48;;;;;;;7.33;4.47;;;;;;;20.18;63.70;100077.53;1640585;86;20196;-72
2021/08/28 08:01:15;;;;;;;3.50;3.30;;;;;;;20.16;63.72;100091.05;1641207;86;21018;-73
2021/08/28 08:03:43;;;;;;;5.53;2.95;;;;;;;20.19;63.59;100083.75;1645345;86;21103;-73
2021/08/28 08:06:18;;;;;;;3.30;3.08;;;;;;;20.25;62.96;100094.92;1635285;86;21093;-74
2021/08/28 08:08:53;;;;;;;4.08;2.67;;;;;;;20.36;62.96;100083.61;1610350;86;21651;-72
2021/08/28 08:11:21;;;;;;;2.25;2.15;;;;;;;20.47;62.04;100091.28;1632748;86;21103;-72
2021/08/28 08:14:02;;;;;;;3.83;2.50;;;;;;;20.49;60.99;100091.83;1609850;86;21076;-73
2021/08/28 08:16:47;;;;;;;1.80;1.70;;;;;;;20.49;60.64;100091.83;1647700;86;21092;-72
2021/08/28 08:19:21;;;;;;;6.30;3.00;;;;;;;20.55;60.85;100089.42;1639549;86;21632;-74
2021/08/28 08:22:06;;;;;;;2.50;1.75;;;;;;;20.68;60.22;100089.03;1636799;86;21068;-74
2021/08/28 08:24:34;;;;;;;3.15;1.20;;;;;;;20.75;58.90;100084.72;1640231;86;21604;-73
2021/08/28 08:27:14;;;;;;;1.57;1.47;;;;;;;20.72;57.57;100084.72;1632516;86;22287;-74
2021/08/28 08:29:42;;;;;;;2.25;1.70;;;;;;;20.69;58.15;100086.58;1624067;86;21064;-74
2021/08/28 08:32:17;;;;;;;3.25;1.95;;;;;;;20.68;58.23;100083.61;1620062;86;21377;-73
2021/08/28 08:34:45;;;;;;;1.57;1.40;;;;;;;20.76;58.29;100081.75;1641322;84;21084;-73
2021/08/28 08:37:11;;;;;;;3.52;1.22;;;;;;;20.81;57.62;100079.60;1642076;86;21088;-73
2021/08/28 08:39:37;;;;;;;1.90;1.32;;;;;;;20.84;57.63;100089.11;1640766;86;21047;-73
2021/08/28 08:42:07;;;;;;;1.40;0.95;;;;;;;20.81;57.82;100090.44;1639846;86;21072;-72
2021/08/28 08:44:35;;;;;;;3.02;0.80;;;;;;;20.85;58.05;100093.44;1613806;86;21432;-74
2021/08/28 08:47:03;;;;;;;1.98;0.60;;;;;;;20.93;57.41;100097.02;1629779;86;21024;-72
2021/08/28 08:49:30;;;;;;;0.93;0.93;;;;;;;20.98;56.53;100099.22;1643706;86;21072;-73
2021/08/28 08:51:57;;;;;;;0.53;0.47;;;;;;;21.05;56.54;100100.87;1618120;86;20993;-74
2021/08/28 08:54:25;;;;;;;0.82;0.78;;;;;;;21.12;55.54;100109.03;1620936;86;21028;-74
2021/08/28 08:56:54;;;;;;;0.75;0.62;;;;;;;21.17;55.73;100111.77;1626844;85;21115;-72
2021/08/28 08:59:20;;;;;;;1.75;0.68;;;;;;;21.22;55.29;100115.58;1631461;86;21553;-72
2021/08/28 09:01:49;;;;;;;0.88;0.70;;;;;;;21.28;55.00;100111.80;1643394;86;21045;-73
2021/08/28 09:04:29;;;;;;;1.20;0.62;;;;;;;21.34;54.61;100118.87;1646413;86;21003;-75
2021/08/28 09:06:58;;;;;;;0.50;0.50;;;;;;;21.37;54.66;100122.41;1640922;86;21041;-73
2021/08/28 09:09:25;;;;;;;3.50;0.55;;;;;;;21.42;54.39;100118.89;1628014;86;21116;-75
2021/08/28 09:12:03;;;;;;;;;;;;;;;21.48;54.12;100128.73;1615792;87;21056;-74
2021/08/28 09:14:30;;;;;;;0.45;0.23;;;;;;;21.43;53.38;100132.19;1617483;87;20410;-73
2021/08/28 09:17:17;;;;;;;0.37;0.37;;;;;;;21.21;53.93;100139.16;1630126;87;21060;-73
2021/08/28 09:19:47;;;;;;;0.53;0.40;;;;;;;21.13;54.12;100145.87;1625730;87;21013;-76
2021/08/28 09:22:32;;;;;;;1.10;0.30;;;;;;;21.09;54.57;100150.74;1625203;87;21035;-74
2021/08/28 09:25:03;;;;;;;1.40;0.30;;;;;;;21.14;53.99;100156.20;1619938;87;21591;-75
2021/08/28 09:27:40;;;;;;;1.12;0.30;;;;;;;21.16;54.02;100160.27;1624246;87;21025;-74
2021/08/28 09:30:42;;;;;;;0.50;0.30;;;;;;;21.17;53.25;100159.20;1614893;88;21090;-73
2021/08/28 09:33:13;;;;;;;0.70;0.17;;;;;;;21.14;53.10;100150.78;1622568;87;21072;-75
2021/08/28 09:35:47;;;;;;;2.72;0.30;;;;;;;21.03;53.18;100158.03;1619096;87;21092;-74
2021/08/28 09:38:20;;;;;;;0.95;0.20;;;;;;;20.95;53.21;100155.83;1615365;87;21600;-72
2021/08/28 09:40:54;;;;;;;0.23;0.20;;;;;;;20.86;53.34;100154.12;1615373;87;21307;-76
2021/08/28 09:43:22;;;;;;;0.60;0.30;;;;;;;20.76;53.70;100156.23;1617618;87;21038;-71
2021/08/28 09:45:53;;;;;;;0.37;0.20;;;;;;;20.65;54.15;100161.85;1650438;85;21157;-70
2021/08/28 09:48:29;;;;;;;0.50;0.15;;;;;;;20.61;54.30;100165.06;1665714;85;21509;-70
2021/08/28 09:50:58;;;;;;;2.77;2.58;;;;;;;20.59;54.37;100157.71;1667761;85;21033;-71
2021/08/28 09:53:27;;;;;;;0.20;0.20;;;;;;;20.59;54.75;100173.95;1665337;85;21576;-72
2021/08/28 09:55:58;;;;;;;0.78;0.30;;;;;;;20.60;54.86;100162.06;1648501;85;21031;-70
2021/08/28 09:58:31;;;;;;;1.85;0.30;;;;;;;20.56;55.11;100164.98;1615845;86;21476;-69
2021/08/28 10:01:04;;;;;;;0.40;0.30;;;;;;;20.46;55.03;100165.46;1601399;88;21047;-70
2021/08/28 10:03:32;;;;;;;2.08;0.30;;;;;;;20.34;54.66;100164.26;1606143;88;21756;-71
2021/08/28 10:06:00;;;;;;;1.85;0.28;;;;;;;20.32;55.26;100176.69;1620763;86;21059;-71
2021/08/28 10:08:30;;;;;;;0.20;0.20;;;;;;;20.42;55.37;100174.63;1613656;87;21124;-70
2021/08/28 10:11:01;;;;;;;0.30;0.20;;;;;;;20.57;54.10;100173.95;1641417;86;21084;-71
2021/08/28 10:13:28;;;;;;;0.70;0.20;;;;;;;20.55;54.23;100169.30;1624605;86;21040;-70
2021/08/28 10:15:56;;;;;;;1.02;0.33;;;;;;;20.61;54.14;100175.09;1640432;86;21078;-70
2021/08/28 10:18:24;;;;;;;0.28;0.20;;;;;;;20.65;54.42;100176.74;1631644;86;21054;-71
2021/08/28 10:20:53;;;;;;;0.68;0.33;;;;;;;20.66;53.64;100184.58;1642132;86;21032;-72
2021/08/28 10:23:22;;;;;;;0.13;0.10;;;;;;;20.65;53.87;100174.03;1633141;86;21010;-70
2021/08/28 10:25:50;;;;;;;2.42;0.42;;;;;;;20.65;53.73;100180.80;1634746;86;20983;-71
2021/08/28 10:28:19;;;;;;;0.62;0.30;;;;;;;20.65;54.04;100176.74;1631282;86;21115;-71
2021/08/28 10:30:47;;;;;;;2.05;0.23;;;;;;;20.62;53.24;100179.41;1630822;86;21512;-69
2021/08/28 10:33:13;;;;;;;0.10;0.10;;;;;;;20.60;53.56;100180.21;1641113;86;21153;-70
2021/08/28 10:35:40;;;;;;;0.20;0.20;;;;;;;20.63;54.07;100177.00;1642939;86;21607;-70
2021/08/28 10:38:07;;;;;;;0.50;0.20;;;;;;;20.70;53.61;100187.08;1651391;86;21058;-70
2021/08/28 10:40:35;;;;;;;0.78;0.35;;;;;;;20.74;53.05;100183.31;1640726;86;21471;-70
2021/08/28 10:43:08;;;;;;;0.33;0.33;;;;;;;20.74;52.91;100190.89;1654388;86;21114;-71
2021/08/28 10:45:39;;;;;;;0.50;0.13;;;;;;;20.74;53.62;100199.02;1652718;86;20998;-71
2021/08/28 10:48:16;;;;;;;0.17;0.15;;;;;;;20.80;53.70;100198.52;1604362;89;21028;-70
2021/08/28 10:50:43;;;;;;;0.30;0.20;;;;;;;20.88;53.30;100205.34;1645415;86;21538;-72
2021/08/28 10:53:11;;;;;;;0.55;0.20;;;;;;;20.90;52.90;100204.55;1661024;85;21050;-70
2021/08/28 10:55:41;;;;;;;0.95;0.23;;;;;;;20.88;52.78;100199.92;1648441;86;21192;-71
2021/08/28 10:58:23;;;;;;;0.60;0.30;;;;;;;20.88;53.22;100203.99;1611417;88;21522;-72
2021/08/28 11:00:55;;;;;;;0.57;0.20;;;;;;;20.89;52.85;100205.09;1619739;87;21609;-70
2021/08/28 11:03:35;;;;;;;2.47;0.20;;;;;;;20.88;53.12;100199.38;1628803;88;21093;-71
2021/08/28 11:06:21;;;;;;;0.42;0.25;;;;;;;20.84;53.14;100211.81;1592049;89;21072;-70
2021/08/28 11:09:00;;;;;;;0.45;0.10;;;;;;;20.82;52.77;100207.20;1607549;88;21036;-70
2021/08/28 11:11:37;;;;;;;0.35;0.23;;;;;;;20.72;53.25;100203.88;1609471;87;21083;-70
2021/08/28 11:14:11;;;;;;;1.22;0.10;;;;;;;20.74;53.32;100207.14;1602273;87;21218;-71
2021/08/28 11:16:46;;;;;;;0.37;0.30;;;;;;;20.79;53.21;100215.83;1613009;87;21408;-72
2021/08/28 11:19:27;;;;;;;0.50;0.15;;;;;;;20.86;52.80;100216.98;1611118;87;21014;-70
2021/08/28 11:21:55;;;;;;;0.40;0.40;;;;;;;20.94;52.91;100215.13;1604995;87;21619;-69
2021/08/28 11:24:25;;;;;;;0.45;0.20;;;;;;;21.07;52.73;100219.30;1627612;87;21071;-71
2021/08/28 11:26:57;;;;;;;0.50;0.20;;;;;;;21.12;52.53;100212.02;1619556;87;21101;-69
2021/08/28 11:29:47;;;;;;;3.08;0.57;;;;;;;21.18;52.17;100208.80;1615881;87;21084;-66
2021/08/28 11:32:23;;;;;;;0.30;0.30;;;;;;;21.20;51.15;100202.02;1626624;87;21029;-66
2021/08/28 11:34:58;;;;;;;0.85;0.37;;;;;;;21.20;50.71;100202.02;1624174;87;21039;-67
2021/08/28 11:37:34;;;;;;;0.33;0.23;;;;;;;21.20;51.30;100201.22;1624575;87;21065;-67
2021/08/28 11:40:27;;;;;;;2.37;0.30;;;;;;;21.22;51.58;100190.11;1624051;87;21009;-66
2021/08/28 11:42:56;;;;;;;1.02;0.50;;;;;;;21.25;51.17;100184.15;1599726;87;21115;-73
2021/08/28 11:45:37;;;;;;;1.72;0.53;;;;;;;21.26;51.41;100198.80;1625349;87;21036;-73
2021/08/28 11:48:14;;;;;;;0.98;0.30;;;;;;;21.27;51.39;100199.64;1625630;87;21190;-74
2021/08/28 11:50:43;;;;;;;2.25;0.30;;;;;;;21.28;51.14;100197.19;1625340;87;21036;-67
2021/08/28 11:53:09;;;;;;;0.53;0.30;;;;;;;21.29;51.25;100198.28;1622664;87;21108;-69